Time;durP1;ratioP1;P1;durP2;ratioP2;P2;SDS_P1;SDS_P2;PMS_P1;PMS_P2;Temp;Humidity;BMP_temperature;BMP_pressure;BME280_temperature;BME280_humidity;BME280_pressure;Samples;Min_cycle;Max_cycle;Signal;HPM_P1;HPM_P2
2022/04/08 00:01:25;;;;;;;2.90;1.63;;;7.90;99.90;;;;;;5052386;28;20273;-37
2022/04/08 00:03:52;;;;;;;2.63;1.23;;;7.90;99.90;;;;;;5049326;28;20189;-40
2022/04/08 00:06:21;;;;;;;6.57;2.20;;;8.10;99.90;;;;;;5054410;28;20485;-40
2022/04/08 00:08:48;;;;;;;3.03;1.73;;;8.00;99.90;;;;;;5085054;28;20414;-38
2022/04/08 00:11:13;;;;;;;1.60;1.47;;;8.20;99.90;;;;;;5051002;28;20503;-39
2022/04/08 00:13:40;;;;;;;6.10;2.10;;;8.00;99.90;;;;;;5050091;28;20519;-37
2022/04/08 00:16:07;;;;;;;4.07;2.23;;;7.90;99.90;;;;;;5049752;28;20213;-37
2022/04/08 00:18:33;;;;;;;3.43;2.00;;;8.00;99.90;;;;;;5049859;28;20416;-40
2022/04/08 00:20:59;;;;;;;3.73;1.73;;;8.10;99.90;;;;;;5050186;28;20425;-35
2022/04/08 00:23:25;;;;;;;6.23;2.77;;;7.90;99.90;;;;;;5057779;28;20428;-38
2022/04/08 00:25:51;;;;;;;6.63;2.50;;;7.80;99.90;;;;;;5053970;28;20266;-38
2022/04/08 00:28:17;;;;;;;4.50;2.00;;;7.90;99.90;;;;;;5049912;28;20428;-38
2022/04/08 00:30:42;;;;;;;3.90;2.07;;;7.80;99.90;;;;;;5058459;28;20198;-40
2022/04/08 00:33:08;;;;;;;4.23;2.13;;;8.10;99.90;;;;;;5049623;28;20223;-39
2022/04/08 00:35:34;;;;;;;6.50;2.27;;;7.80;99.90;;;;;;5049498;28;20224;-39
2022/04/08 00:37:59;;;;;;;7.40;3.77;;;8.00;99.90;;;;;;5060871;28;20721;-37
2022/04/08 00:40:25;;;;;;;5.30;2.80;;;7.80;99.90;;;;;;5066529;28;20523;-38
2022/04/08 00:42:51;;;;;;;5.73;2.77;;;7.80;99.90;;;;;;5049906;28;20204;-38
2022/04/08 00:45:16;;;;;;;7.50;2.43;;;7.70;99.90;;;;;;5054952;28;20189;-35
2022/04/08 00:47:44;;;;;;;4.83;2.30;;;7.50;99.90;;;;;;5049487;28;20190;-39
2022/04/08 00:50:11;;;;;;;3.53;2.37;;;7.60;99.90;;;;;;5048992;28;20676;-40
2022/04/08 00:52:39;;;;;;;3.87;3.33;;;7.40;99.90;;;;;;5054658;28;21042;-37
2022/04/08 00:55:06;;;;;;;5.37;2.93;;;7.50;99.90;;;;;;5068093;28;20507;-38
2022/04/08 00:57:33;;;;;;;3.77;3.00;;;7.60;99.90;;;;;;5049434;28;20444;-40
2022/04/08 01:00:07;;;;;;;5.83;3.33;;;7.40;99.90;;;;;;5050072;28;20428;-39
2022/04/08 01:02:33;;;;;;;9.33;3.80;;;7.60;99.90;;;;;;5049326;28;20985;-37
2022/04/08 01:04:58;;;;;;;9.97;3.10;;;7.50;99.90;;;;;;5048353;28;20561;-37
2022/04/08 01:07:24;;;;;;;4.37;3.40;;;7.50;99.90;;;;;;5059096;28;20193;-40
2022/04/08 01:09:51;;;;;;;7.93;3.53;;;7.70;99.90;;;;;;5070560;28;20915;-34
2022/04/08 01:12:17;;;;;;;4.23;3.30;;;7.50;99.90;;;;;;5051996;28;20264;-37
2022/04/08 01:14:43;;;;;;;6.93;3.40;;;7.40;99.90;;;;;;5052470;28;20439;-39
2022/04/08 01:17:08;;;;;;;8.90;4.47;;;7.50;99.90;;;;;;5055172;28;20460;-35
2022/04/08 01:19:34;;;;;;;6.10;2.80;;;7.60;99.90;;;;;;5048938;28;20192;-40
2022/04/08 01:22:00;;;;;;;6.73;3.10;;;7.50;99.90;;;;;;5055318;28;20225;-40
2022/04/08 01:24:27;;;;;;;6.40;3.20;;;7.50;99.90;;;;;;5062758;28;20177;-41
2022/04/08 01:26:53;;;;;;;9.77;3.33;;;7.40;99.90;;;;;;5060146;28;20194;-41
2022/04/08 01:29:19;;;;;;;6.77;3.40;;;7.40;99.90;;;;;;5048105;28;20461;-37
2022/04/08 01:31:45;;;;;;;8.30;3.57;;;7.30;99.90;;;;;;5053220;28;20774;-37
2022/04/08 01:34:14;;;;;;;6.40;3.87;;;7.30;99.90;;;;;;5049075;28;20213;-39
2022/04/08 01:36:40;;;;;;;6.67;3.07;;;7.40;99.90;;;;;;5048413;28;20546;-39
2022/04/08 01:39:06;;;;;;;6.57;3.27;;;7.40;99.90;;;;;;5072864;28;20478;-38
2022/04/08 01:41:32;;;;;;;5.43;3.20;;;7.30;99.90;;;;;;5056746;28;20424;-40
2022/04/08 01:43:58;;;;;;;6.67;3.57;;;7.40;99.90;;;;;;5048656;28;21068;-37
2022/04/08 01:46:24;;;;;;;8.47;3.67;;;7.30;99.90;;;;;;5050182;28;20938;-40
2022/04/08 01:48:53;;;;;;;11.63;2.80;;;7.30;99.90;;;;;;5048941;28;20519;-40
2022/04/08 01:51:19;;;;;;;5.13;2.43;;;7.60;99.90;;;;;;5048942;28;20428;-38
2022/04/08 01:53:45;;;;;;;8.20;2.47;;;7.30;99.90;;;;;;5062867;28;20415;-38
2022/04/08 01:56:11;;;;;;;6.33;2.20;;;7.10;99.90;;;;;;5072904;28;20867;-37
2022/04/08 01:58:37;;;;;;;5.83;2.00;;;7.20;99.90;;;;;;5048470;28;20435;-38
2022/04/08 02:01:03;;;;;;;6.33;2.50;;;7.00;99.90;;;;;;5059061;28;20415;-39
2022/04/08 02:03:29;;;;;;;5.17;2.00;;;7.20;99.90;;;;;;5047469;28;20442;-37
2022/04/08 02:05:55;;;;;;;6.90;2.20;;;7.40;99.90;;;;;;5047373;28;20430;-41
2022/04/08 02:08:20;;;;;;;4.33;2.30;;;7.20;99.90;;;;;;5062510;28;20187;-39
2022/04/08 02:10:46;;;;;;;7.67;2.60;;;7.10;99.90;;;;;;5070706;28;20420;-34
2022/04/08 02:13:12;;;;;;;6.53;1.60;;;7.20;99.90;;;;;;5048481;28;20754;-35
2022/04/08 02:15:38;;;;;;;8.40;1.93;;;7.20;99.90;;;;;;5054888;28;20676;-36
2022/04/08 02:18:04;;;;;;;5.87;2.83;;;7.20;99.90;;;;;;5048680;28;20601;-38
2022/04/08 02:20:31;;;;;;;5.30;1.77;;;7.30;99.90;;;;;;5048016;28;20204;-38
2022/04/08 02:22:58;;;;;;;6.83;2.27;;;7.40;99.90;;;;;;5056956;28;20422;-40
2022/04/08 02:25:25;;;;;;;5.80;2.10;;;7.10;99.90;;;;;;5069642;28;20417;-35
2022/04/08 02:27:52;;;;;;;5.53;1.60;;;7.20;99.90;;;;;;5059037;28;20507;-38
2022/04/08 02:30:17;;;;;;;8.20;1.90;;;7.20;99.90;;;;;;5049952;28;20411;-37
2022/04/08 02:32:43;;;;;;;3.20;1.47;;;7.10;99.90;;;;;;5048599;28;20431;-38
2022/04/08 02:35:09;;;;;;;11.77;3.20;;;7.10;99.90;;;;;;5048180;28;20231;-34
2022/04/08 02:37:35;;;;;;;10.73;2.17;;;7.10;99.90;;;;;;5056225;28;20276;-38
2022/04/08 02:40:00;;;;;;;4.60;1.90;;;7.10;99.90;;;;;;5064459;28;20497;-40
2022/04/08 02:42:30;;;;;;;6.77;1.87;;;7.00;99.90;;;;;;5058394;28;21097;-37
2022/04/08 02:44:56;;;;;;;7.70;2.37;;;6.90;99.90;;;;;;5052046;28;20221;-39
2022/04/08 02:47:22;;;;;;;7.40;2.37;;;7.20;99.90;;;;;;5062065;28;20768;-34
2022/04/08 02:49:47;;;;;;;11.63;2.70;;;7.10;99.90;;;;;;5051147;28;20434;-37
2022/04/08 02:52:13;;;;;;;7.37;2.83;;;7.00;99.90;;;;;;5051414;28;20182;-40
2022/04/08 02:54:39;;;;;;;9.70;2.20;;;7.00;99.90;;;;;;5056164;28;20606;-38
2022/04/08 02:57:05;;;;;;;6.90;2.87;;;7.10;99.90;;;;;;5067709;28;20255;-40
2022/04/08 02:59:30;;;;;;;5.60;3.40;;;7.30;99.90;;;;;;5051508;28;20178;-40
2022/04/08 03:01:56;;;;;;;10.13;3.90;;;7.10;99.90;;;;;;5057466;28;20424;-37
2022/04/08 03:04:22;;;;;;;6.37;3.20;;;7.30;99.90;;;;;;5049935;28;20193;-41
2022/04/08 03:06:48;;;;;;;4.70;2.80;;;7.10;99.90;;;;;;5050973;28;20194;-38
2022/04/08 03:09:15;;;;;;;10.93;4.00;;;7.20;99.90;;;;;;5058822;28;20570;-40
2022/04/08 03:11:40;;;;;;;9.03;4.23;;;7.20;99.90;;;;;;5068928;28;20544;-40
2022/04/08 03:14:06;;;;;;;6.87;3.30;;;7.10;99.90;;;;;;5051442;28;20197;-36
2022/04/08 03:16:32;;;;;;;9.30;3.70;;;7.10;99.90;;;;;;5053835;28;20217;-36
2022/04/08 03:18:58;;;;;;;10.20;4.30;;;7.10;99.90;;;;;;5051448;28;20212;-37
2022/04/08 03:21:25;;;;;;;12.17;2.87;;;7.20;99.90;;;;;;5050690;28;20452;-40
2022/04/08 03:23:50;;;;;;;12.17;3.63;;;7.20;99.90;;;;;;5060877;28;20489;-38
2022/04/08 03:26:16;;;;;;;6.83;3.17;;;7.00;99.90;;;;;;5075859;28;20454;-38
2022/04/08 03:28:43;;;;;;;6.77;3.47;;;7.10;99.90;;;;;;5049787;28;20570;-37
2022/04/08 03:31:09;;;;;;;8.23;3.30;;;7.10;99.90;;;;;;5057589;28;20287;-41
2022/04/08 03:33:37;;;;;;;6.80;2.57;;;7.20;99.90;;;;;;5055371;28;20431;-40
2022/04/08 03:36:04;;;;;;;7.27;2.63;;;7.00;99.90;;;;;;5050796;28;20518;-39
2022/04/08 03:38:30;;;;;;;8.87;3.40;;;7.00;99.90;;;;;;5061340;28;20468;-35
2022/04/08 03:40:56;;;;;;;6.93;2.50;;;7.10;99.90;;;;;;5069146;28;20507;-38
2022/04/08 03:43:22;;;;;;;7.13;3.00;;;7.00;99.90;;;;;;5053259;28;20430;-38
2022/04/08 03:45:47;;;;;;;7.90;4.07;;;7.00;99.90;;;;;;5054624;28;20191;-40
2022/04/08 03:48:13;;;;;;;7.63;3.43;;;6.90;99.90;;;;;;5054672;28;20193;-38
2022/04/08 03:50:39;;;;;;;9.83;3.60;;;7.10;99.90;;;;;;5049895;28;20202;-40
2022/04/08 03:53:04;;;;;;;8.50;3.10;;;7.00;99.90;;;;;;5050595;28;20608;-37
2022/04/08 03:55:30;;;;;;;9.03;3.70;;;6.90;99.90;;;;;;5081652;28;20227;-39
2022/04/08 03:57:55;;;;;;;8.30;3.07;;;7.00;99.90;;;;;;5055025;28;20194;-38
2022/04/08 04:00:21;;;;;;;11.83;2.97;;;7.10;99.90;;;;;;5050414;28;20213;-39
2022/04/08 04:02:47;;;;;;;7.37;2.67;;;6.80;99.90;;;;;;5052894;28;20190;-37
2022/04/08 04:05:13;;;;;;;6.40;2.50;;;6.80;99.90;;;;;;5049139;28;20879;-34
2022/04/08 04:07:38;;;;;;;13.20;3.13;;;6.80;99.90;;;;;;5052155;28;20193;-40
2022/04/08 04:10:05;;;;;;;3.30;2.27;;;6.80;99.90;;;;;;5069573;28;20510;-36
2022/04/08 04:12:30;;;;;;;4.13;2.80;;;7.00;99.90;;;;;;5058109;28;20281;-39
2022/04/08 04:14:56;;;;;;;4.67;1.80;;;6.90;99.90;;;;;;5049062;28;20499;-37
2022/04/08 04:17:23;;;;;;;5.13;2.40;;;6.80;99.90;;;;;;5063699;28;20213;-38
2022/04/08 04:19:49;;;;;;;6.30;1.70;;;7.00;99.90;;;;;;5048332;28;20248;-40
2022/04/08 04:22:14;;;;;;;6.40;1.80;;;6.80;99.90;;;;;;5049118;28;20408;-38
2022/04/08 04:24:40;;;;;;;5.27;2.43;;;6.80;99.90;;;;;;5054526;28;20200;-38
2022/04/08 04:27:06;;;;;;;7.40;1.70;;;6.80;99.90;;;;;;5060182;28;20251;-38
2022/04/08 04:29:32;;;;;;;5.60;2.10;;;6.70;99.90;;;;;;5083167;28;20188;-38
2022/04/08 04:31:59;;;;;;;7.40;1.90;;;6.90;99.90;;;;;;5066259;28;20695;-36
2022/04/08 04:34:25;;;;;;;3.30;1.50;;;6.70;99.90;;;;;;5049924;28;20194;-39
2022/04/08 04:36:51;;;;;;;11.03;2.53;;;6.80;99.90;;;;;;5051868;28;20456;-39
2022/04/08 04:39:16;;;;;;;3.97;2.00;;;6.80;99.90;;;;;;5061488;28;20488;-40
2022/04/08 04:41:42;;;;;;;7.03;2.90;;;6.60;99.90;;;;;;5060367;28;20197;-39
2022/04/08 04:44:08;;;;;;;5.70;1.63;;;6.70;99.90;;;;;;5068790;28;20188;-38
2022/04/08 04:46:34;;;;;;;8.23;2.27;;;6.80;99.90;;;;;;5063813;28;20193;-40
2022/04/08 04:48:59;;;;;;;6.80;2.00;;;6.70;99.90;;;;;;5060768;28;20255;-40
2022/04/08 04:51:26;;;;;;;7.00;2.43;;;6.80;99.90;;;;;;5049037;28;20243;-40
2022/04/08 04:53:52;;;;;;;7.27;2.50;;;6.70;99.90;;;;;;5053756;28;20340;-39
2022/04/08 04:56:18;;;;;;;5.57;2.73;;;6.70;99.90;;;;;;5059684;28;20587;-37
2022/04/08 04:58:43;;;;;;;7.83;3.00;;;6.40;99.90;;;;;;5053591;28;20197;-40
2022/04/08 05:01:09;;;;;;;5.47;3.07;;;6.30;99.90;;;;;;5050001;28;20270;-39
2022/04/08 05:03:35;;;;;;;8.90;3.37;;;6.40;99.90;;;;;;5059204;28;20322;-38
2022/04/08 05:06:00;;;;;;;6.07;3.63;;;6.20;99.90;;;;;;5049096;28;20194;-40
2022/04/08 05:08:26;;;;;;;6.80;3.43;;;6.40;99.90;;;;;;5048882;28;20692;-38
2022/04/08 05:10:51;;;;;;;7.00;4.40;;;6.40;99.90;;;;;;5057222;28;20532;-38
2022/04/08 05:13:18;;;;;;;6.90;3.83;;;6.30;99.90;;;;;;5055239;28;20190;-40
2022/04/08 05:15:45;;;;;;;9.10;4.93;;;6.60;99.90;;;;;;5055988;28;20212;-39
2022/04/08 05:18:11;;;;;;;7.50;4.47;;;6.60;99.90;;;;;;5049142;28;20511;-37
2022/04/08 05:20:37;;;;;;;10.07;4.07;;;6.60;99.90;;;;;;5048358;28;20782;-40
2022/04/08 05:23:02;;;;;;;9.37;3.30;;;6.50;99.90;;;;;;5049104;28;20436;-41
2022/04/08 05:25:28;;;;;;;8.90;3.20;;;6.20;99.90;;;;;;5055421;28;20247;-38
2022/04/08 05:27:54;;;;;;;5.33;2.47;;;6.30;99.90;;;;;;5068144;28;20194;-39
2022/04/08 05:30:20;;;;;;;8.87;4.10;;;6.40;99.90;;;;;;5048460;28;20200;-40
2022/04/08 05:32:49;;;;;;;5.77;2.47;;;6.50;99.90;;;;;;5052364;28;20458;-37
2022/04/08 05:35:18;;;;;;;5.90;3.03;;;6.50;99.90;;;;;;5048603;28;20190;-34
2022/04/08 05:37:46;;;;;;;8.50;3.33;;;6.50;99.90;;;;;;5048822;28;20416;-37
2022/04/08 05:40:18;;;;;;;6.57;3.83;;;6.60;99.90;;;;;;5057616;28;21001;-41
2022/04/08 05:42:46;;;;;;;7.87;4.77;;;6.60;99.90;;;;;;5063852;28;20416;-38
2022/04/08 05:45:14;;;;;;;7.70;4.43;;;6.60;99.90;;;;;;5051951;28;20424;-35
2022/04/08 05:47:39;;;;;;;7.30;4.50;;;6.40;99.90;;;;;;5059546;28;20431;-40
2022/04/08 05:50:06;;;;;;;12.17;4.60;;;6.50;99.90;;;;;;5049979;28;20432;-38
2022/04/08 05:52:32;;;;;;;6.93;4.27;;;6.30;99.90;;;;;;5048869;28;20206;-37
2022/04/08 05:54:57;;;;;;;9.10;4.67;;;6.50;99.90;;;;;;5063981;28;20427;-38
2022/04/08 05:57:23;;;;;;;9.00;4.13;;;6.40;99.90;;;;;;5069380;28;20211;-37
2022/04/08 05:59:49;;;;;;;6.17;4.27;;;6.60;99.90;;;;;;5048209;28;20213;-36
2022/04/08 06:02:15;;;;;;;7.87;4.77;;;6.80;99.90;;;;;;5055309;28;20189;-37
2022/04/08 06:04:41;;;;;;;6.80;4.30;;;6.90;99.90;;;;;;5049196;28;20967;-38
2022/04/08 06:07:07;;;;;;;8.40;4.43;;;7.10;99.90;;;;;;5048802;28;20427;-36
2022/04/08 06:09:33;;;;;;;6.90;4.37;;;7.20;99.90;;;;;;5052132;28;21098;-41
2022/04/08 06:11:59;;;;;;;6.93;4.30;;;7.50;99.90;;;;;;5064544;28;20435;-37
2022/04/08 06:14:26;;;;;;;10.77;5.70;;;7.40;99.90;;;;;;5060362;28;20492;-38
2022/04/08 06:16:52;;;;;;;9.27;4.67;;;7.50;99.90;;;;;;5085226;28;20575;-38
2022/04/08 06:19:18;;;;;;;11.67;4.83;;;7.40;99.90;;;;;;5060032;28;20522;-37
2022/04/08 06:21:44;;;;;;;13.40;5.37;;;7.50;99.90;;;;;;5074751;28;20509;-37
2022/04/08 06:24:10;;;;;;;8.37;4.70;;;7.60;99.90;;;;;;5066308;28;20189;-39
2022/04/08 06:26:36;;;;;;;9.40;4.47;;;7.50;99.90;;;;;;5085019;28;20674;-39
2022/04/08 06:29:04;;;;;;;5.90;4.00;;;7.50;99.90;;;;;;5064553;28;20430;-41
2022/04/08 06:31:31;;;;;;;7.10;3.47;;;7.50;99.90;;;;;;5069528;28;20892;-38
2022/04/08 06:34:01;;;;;;;7.13;4.60;;;7.60;99.90;;;;;;5059268;28;20992;-41
2022/04/08 06:36:27;;;;;;;9.00;3.70;;;7.70;99.90;;;;;;5054230;28;20469;-38
2022/04/08 06:38:53;;;;;;;9.47;4.27;;;8.20;99.90;;;;;;5063340;28;20422;-36
2022/04/08 06:41:19;;;;;;;10.00;3.83;;;8.10;99.90;;;;;;5064773;28;20426;-37
2022/04/08 06:43:45;;;;;;;12.23;4.37;;;8.40;99.90;;;;;;5062879;28;20461;-38
2022/04/08 06:46:11;;;;;;;6.97;4.30;;;8.60;99.90;;;;;;5068229;28;21186;-35
2022/04/08 06:48:37;;;;;;;9.83;4.40;;;8.80;99.90;;;;;;5052669;28;20193;-37
2022/04/08 06:51:04;;;;;;;8.67;4.50;;;8.90;99.90;;;;;;5051198;28;20424;-40
2022/04/08 06:53:33;;;;;;;6.03;4.40;;;8.80;99.90;;;;;;5051215;28;20340;-38
2022/04/08 06:56:01;;;;;;;8.80;5.07;;;9.00;99.90;;;;;;5080540;28;20816;-40
2022/04/08 06:58:27;;;;;;;8.17;5.20;;;9.10;99.90;;;;;;5055918;28;20967;-39
2022/04/08 07:00:54;;;;;;;10.63;6.00;;;9.20;99.90;;;;;;5066999;28;20419;-38
2022/04/08 07:03:20;;;;;;;7.67;5.70;;;9.20;99.90;;;;;;5056690;28;20876;-40
2022/04/08 07:05:46;;;;;;;10.13;5.70;;;9.10;99.90;;;;;;5071902;28;20418;-37
2022/04/08 07:08:11;;;;;;;10.93;6.47;;;9.10;99.90;;;;;;5050145;28;20819;-39
2022/04/08 07:10:40;;;;;;;11.90;6.20;;;9.00;99.90;;;;;;5067307;28;20293;-40
2022/04/08 07:13:07;;;;;;;10.03;5.87;;;9.10;99.90;;;;;;5066685;28;20670;-37
2022/04/08 07:15:33;;;;;;;9.53;6.40;;;8.70;99.90;;;;;;5057434;28;21161;-41
2022/04/08 07:17:58;;;;;;;13.00;7.13;;;8.50;99.90;;;;;;5064272;28;20431;-40
2022/04/08 07:20:24;;;;;;;10.53;7.40;;;8.40;99.90;;;;;;5050868;28;20994;-37
2022/04/08 07:22:51;;;;;;;12.03;7.60;;;8.40;99.90;;;;;;5052159;28;20178;-35
2022/04/08 07:25:17;;;;;;;7.40;6.50;;;8.30;99.90;;;;;;5057139;28;20186;-37
2022/04/08 07:27:48;;;;;;;11.90;8.10;;;8.60;99.90;;;;;;5060124;28;20815;-37
2022/04/08 07:30:17;;;;;;;11.50;7.70;;;8.60;99.90;;;;;;5050788;28;20420;-35
2022/04/08 07:32:43;;;;;;;11.93;6.60;;;8.50;99.90;;;;;;5057212;28;20411;-38
2022/04/08 07:35:10;;;;;;;8.57;6.83;;;8.40;99.90;;;;;;5056505;28;20428;-38
2022/04/08 07:37:36;;;;;;;9.23;7.03;;;8.60;99.90;;;;;;5050898;28;20460;-38
2022/04/08 07:40:07;;;;;;;9.67;7.73;;;8.60;99.90;;;;;;5051236;28;20439;-36
2022/04/08 07:42:33;;;;;;;11.73;7.40;;;8.60;99.90;;;;;;5070168;28;20418;-36
2022/04/08 07:44:58;;;;;;;11.33;7.00;;;8.30;99.90;;;;;;5052738;28;20419;-35
2022/04/08 07:47:27;;;;;;;10.30;7.10;;;8.60;99.90;;;;;;5053859;28;20477;-37
2022/04/08 07:50:02;;;;;;;8.93;7.10;;;8.40;99.90;;;;;;5054378;28;20190;-37
2022/04/08 07:52:28;;;;;;;10.90;7.20;;;8.30;99.90;;;;;;5050698;28;20435;-39
2022/04/08 07:54:55;;;;;;;9.27;8.33;;;8.50;99.90;;;;;;5053568;28;20441;-37
2022/04/08 07:57:21;;;;;;;9.30;7.97;;;8.30;99.90;;;;;;5069421;28;20878;-35
2022/04/08 07:59:47;;;;;;;9.83;7.20;;;8.20;99.90;;;;;;5053754;28;20499;-39
2022/04/08 08:02:13;;;;;;;11.13;8.33;;;8.20;99.90;;;;;;5050700;28;20818;-37
2022/04/08 08:04:39;;;;;;;11.47;8.53;;;8.50;99.90;;;;;;5051481;28;20425;-35
2022/04/08 08:07:05;;;;;;;10.50;7.77;;;8.40;99.90;;;;;;5050612;28;20420;-38
2022/04/08 08:09:31;;;;;;;8.47;7.57;;;8.40;99.90;;;;;;5051270;28;20468;-37
2022/04/08 08:11:56;;;;;;;8.50;7.60;;;8.50;99.90;;;;;;5070742;28;20275;-40
2022/04/08 08:14:22;;;;;;;9.20;8.23;;;8.30;99.90;;;;;;5065016;28;20209;-37
2022/04/08 08:16:48;;;;;;;10.63;8.03;;;8.40;99.90;;;;;;5061313;28;20228;-40
2022/04/08 08:19:14;;;;;;;13.23;9.07;;;8.40;99.90;;;;;;5065860;28;20197;-39
2022/04/08 08:21:40;;;;;;;9.93;7.73;;;8.60;99.90;;;;;;5049720;28;20178;-39
2022/04/08 08:24:05;;;;;;;11.00;9.17;;;8.60;99.90;;;;;;5049928;28;20486;-38
2022/04/08 08:26:31;;;;;;;9.53;8.40;;;8.60;99.90;;;;;;5066930;28;20194;-40
2022/04/08 08:28:58;;;;;;;10.90;8.80;;;8.80;99.90;;;;;;5065644;28;20265;-38
2022/04/08 08:31:24;;;;;;;10.23;8.43;;;8.60;99.90;;;;;;5049532;28;20428;-36
2022/04/08 08:33:50;;;;;;;8.67;7.83;;;8.80;99.90;;;;;;5055816;28;20424;-38
2022/04/08 08:36:16;;;;;;;8.83;7.90;;;8.70;99.90;;;;;;5048412;28;20761;-40
2022/04/08 08:38:42;;;;;;;7.63;6.97;;;8.80;99.90;;;;;;5049297;28;20448;-39
2022/04/08 08:41:09;;;;;;;8.90;6.97;;;8.80;99.90;;;;;;5062604;28;20769;-36
2022/04/08 08:43:35;;;;;;;8.03;7.13;;;8.80;99.90;;;;;;5071001;28;20452;-36
2022/04/08 08:46:04;;;;;;;9.83;7.70;;;9.00;99.90;;;;;;5049734;28;20428;-40
2022/04/08 08:48:34;;;;;;;11.40;7.63;;;9.00;99.90;;;;;;5053076;28;20969;-35
2022/04/08 08:51:05;;;;;;;11.40;7.57;;;8.80;99.90;;;;;;5048915;28;20511;-39
2022/04/08 08:53:32;;;;;;;8.70;7.50;;;8.90;99.90;;;;;;5049597;28;20428;-36
2022/04/08 08:55:58;;;;;;;9.73;7.77;;;8.80;99.90;;;;;;5058996;28;20476;-36
2022/04/08 08:58:24;;;;;;;9.43;8.50;;;8.90;99.90;;;;;;5069726;28;20412;-40
2022/04/08 09:00:50;;;;;;;9.33;8.40;;;9.00;99.90;;;;;;5048513;28;20473;-40
2022/04/08 09:03:16;;;;;;;8.50;7.70;;;9.00;99.90;;;;;;5053395;28;20645;-35
2022/04/08 09:05:43;;;;;;;8.50;7.63;;;8.90;99.90;;;;;;5055579;28;20220;-38
2022/04/08 09:08:10;;;;;;;7.67;6.53;;;9.00;99.90;;;;;;5047891;28;20464;-34
2022/04/08 09:10:45;;;;;;;7.73;7.03;;;8.70;99.90;;;;;;5049089;28;20432;-39
2022/04/08 09:13:11;;;;;;;7.87;7.10;;;8.90;99.90;;;;;;5072974;28;20428;-39
2022/04/08 09:15:40;;;;;;;7.20;6.50;;;8.80;99.90;;;;;;5055341;28;20426;-41
2022/04/08 09:18:10;;;;;;;7.80;7.00;;;8.80;99.90;;;;;;5067719;28;20485;-39
2022/04/08 09:20:44;;;;;;;7.33;6.50;;;8.80;99.90;;;;;;5052712;28;20432;-37
2022/04/08 09:23:11;;;;;;;6.60;6.00;;;8.90;99.90;;;;;;5049455;28;20519;-35
2022/04/08 09:25:39;;;;;;;6.40;5.80;;;8.80;99.90;;;;;;5053264;28;20814;-39
2022/04/08 09:28:09;;;;;;;7.23;6.63;;;9.00;99.90;;;;;;5076980;28;20427;-38
2022/04/08 09:30:35;;;;;;;6.20;5.60;;;8.90;99.90;;;;;;5063172;28;20426;-38
2022/04/08 09:33:19;;;;;;;6.80;6.20;;;8.90;99.90;;;;;;5049928;28;21225;-37
2022/04/08 09:35:45;;;;;;;7.27;6.67;;;9.10;99.90;;;;;;5049110;28;20464;-37
2022/04/08 09:38:16;;;;;;;6.40;5.53;;;9.00;99.90;;;;;;5048849;28;20493;-39
2022/04/08 09:40:42;;;;;;;7.17;6.37;;;8.80;99.90;;;;;;5056729;28;20435;-39
2022/04/08 09:43:08;;;;;;;6.10;5.57;;;8.80;99.90;;;;;;5067686;28;20532;-41
2022/04/08 09:45:34;;;;;;;8.20;5.00;;;8.90;99.90;;;;;;5056322;28;20426;-40
2022/04/08 09:48:02;;;;;;;7.87;5.50;;;8.90;99.90;;;;;;5049136;28;20432;-38
2022/04/08 09:50:28;;;;;;;5.73;5.23;;;8.90;99.90;;;;;;5062767;28;20443;-40
2022/04/08 09:52:54;;;;;;;5.20;4.70;;;9.00;99.90;;;;;;5053000;28;20421;-40
2022/04/08 09:55:22;;;;;;;7.40;4.73;;;9.20;99.90;;;;;;5052479;28;20436;-38
2022/04/08 09:57:51;;;;;;;9.23;4.73;;;9.10;99.90;;;;;;5056883;28;20424;-38
2022/04/08 10:00:18;;;;;;;5.23;4.13;;;9.00;99.90;;;;;;5056917;28;20807;-40
2022/04/08 10:02:48;;;;;;;9.80;3.63;;;9.10;99.90;;;;;;5052643;28;20424;-35
2022/04/08 10:05:14;;;;;;;5.57;4.10;;;9.40;99.90;;;;;;5059657;28;20424;-40
2022/04/08 10:07:41;;;;;;;5.97;3.63;;;9.10;99.90;;;;;;5052758;28;20435;-41
2022/04/08 10:10:20;;;;;;;4.83;3.47;;;9.40;99.90;;;;;;5051086;28;20247;-38
2022/04/08 10:13:03;;;;;;;3.87;3.47;;;9.20;99.90;;;;;;5067584;28;20899;-39
2022/04/08 10:15:44;;;;;;;5.63;3.27;;;9.30;99.90;;;;;;5074698;28;20415;-38
2022/04/08 10:18:10;;;;;;;4.20;3.00;;;9.40;99.90;;;;;;5052585;28;20428;-39
2022/04/08 10:20:37;;;;;;;3.40;3.10;;;9.30;99.90;;;;;;5055888;28;20526;-37
2022/04/08 10:23:07;;;;;;;4.70;2.97;;;9.30;99.90;;;;;;5052964;28;20438;-35
2022/04/08 10:25:43;;;;;;;5.43;3.03;;;9.60;99.90;;;;;;5057395;28;20457;-37
2022/04/08 10:28:11;;;;;;;6.00;2.63;;;9.30;99.60;;;;;;5078178;28;20418;-41
2022/04/08 10:30:47;;;;;;;5.67;2.30;;;9.50;99.90;;;;;;5063321;28;20473;-40
2022/04/08 10:33:22;;;;;;;5.57;2.50;;;9.50;99.70;;;;;;5052204;28;20437;-39
2022/04/08 10:35:56;;;;;;;5.03;2.33;;;9.50;99.20;;;;;;5059635;28;20467;-40
2022/04/08 10:38:22;;;;;;;4.27;2.13;;;9.40;98.70;;;;;;5065713;28;20484;-35
2022/04/08 10:40:56;;;;;;;2.23;1.57;;;9.60;98.50;;;;;;5070766;28;20439;-35
2022/04/08 10:43:22;;;;;;;2.27;1.90;;;9.70;98.30;;;;;;5068176;28;20451;-38
2022/04/08 10:45:58;;;;;;;5.80;1.90;;;9.60;97.60;;;;;;5064950;28;20469;-41
2022/04/08 10:48:32;;;;;;;3.07;2.00;;;9.60;98.20;;;;;;5062121;28;20472;-39
2022/04/08 10:51:17;;;;;;;4.03;1.90;;;9.40;96.20;;;;;;5061211;28;20748;-37
2022/04/08 10:53:43;;;;;;;4.10;2.60;;;9.50;97.20;;;;;;5060478;28;20871;-37
2022/04/08 10:56:14;;;;;;;3.00;2.07;;;9.50;97.20;;;;;;5063022;28;20470;-41
2022/04/08 10:58:49;;;;;;;2.83;2.23;;;9.80;97.30;;;;;;5068060;28;20929;-39
2022/04/08 11:01:15;;;;;;;1.73;1.63;;;9.70;96.90;;;;;;5057185;28;20419;-35
2022/04/08 11:03:46;;;;;;;3.97;2.27;;;9.80;97.20;;;;;;5065566;28;20426;-39
2022/04/08 11:06:14;;;;;;;3.50;2.33;;;9.60;97.30;;;;;;5066510;28;20616;-38
2022/04/08 11:08:40;;;;;;;5.70;2.03;;;9.60;96.90;;;;;;5050255;28;20452;-39
2022/04/08 11:11:05;;;;;;;5.30;2.90;;;9.80;96.90;;;;;;5050369;28;20428;-38
2022/04/08 11:13:31;;;;;;;2.30;1.77;;;9.50;97.40;;;;;;5081568;28;20462;-41
2022/04/08 11:15:57;;;;;;;9.00;3.70;;;9.40;97.60;;;;;;5062590;28;20224;-39
2022/04/08 11:18:26;;;;;;;2.30;2.10;;;9.50;97.70;;;;;;5060803;28;20189;-40
2022/04/08 11:20:51;;;;;;;2.70;2.47;;;9.50;97.40;;;;;;5067011;28;20550;-37
2022/04/08 11:23:28;;;;;;;4.73;2.63;;;9.50;97.50;;;;;;5062339;28;20432;-40
2022/04/08 11:25:54;;;;;;;3.50;3.20;;;9.50;98.40;;;;;;5056215;28;20194;-41
2022/04/08 11:28:23;;;;;;;5.30;3.60;;;9.50;98.70;;;;;;5079047;28;20431;-39
2022/04/08 11:30:55;;;;;;;6.80;3.20;;;9.50;98.70;;;;;;5067382;28;20433;-37
2022/04/08 11:33:21;;;;;;;5.70;3.80;;;9.40;98.10;;;;;;5049350;28;21012;-39
2022/04/08 11:35:53;;;;;;;3.87;3.57;;;9.50;98.10;;;;;;5056861;28;20464;-40
2022/04/08 11:38:20;;;;;;;5.80;2.97;;;9.50;97.90;;;;;;5048900;28;20181;-35
2022/04/08 11:40:46;;;;;;;5.07;4.00;;;9.50;98.70;;;;;;5050032;28;20432;-33
2022/04/08 11:43:16;;;;;;;3.70;3.10;;;9.70;99.40;;;;;;5074976;28;20427;-38
2022/04/08 11:45:46;;;;;;;6.50;3.20;;;9.70;99.50;;;;;;5067455;28;20429;-35
2022/04/08 11:48:17;;;;;;;5.10;3.80;;;9.70;99.60;;;;;;5048899;28;20494;-37
2022/04/08 11:50:43;;;;;;;4.30;3.40;;;9.70;98.30;;;;;;5055138;28;20424;-37
2022/04/08 11:53:20;;;;;;;4.20;3.80;;;9.60;98.00;;;;;;5049588;28;20420;-41
2022/04/08 11:55:53;;;;;;;3.50;3.20;;;9.50;97.80;;;;;;5012159;28;1065456;-39
2022/04/08 11:58:19;;;;;;;3.80;3.50;;;9.60;98.40;;;;;;5052792;28;20972;-41
2022/04/08 12:00:47;;;;;;;3.67;3.33;;;9.50;98.50;;;;;;5067216;28;20452;-36
2022/04/08 12:03:26;;;;;;;5.37;3.47;;;9.60;98.90;;;;;;5050357;28;20424;-40
2022/04/08 12:05:52;;;;;;;3.73;3.33;;;9.50;99.80;;;;;;5052400;28;20569;-39
2022/04/08 12:08:19;;;;;;;4.77;3.70;;;9.50;99.10;;;;;;5050291;28;21186;-38
2022/04/08 12:10:50;;;;;;;3.33;3.03;;;9.60;99.60;;;;;;5049351;28;20445;-38
2022/04/08 12:13:19;;;;;;;3.33;3.03;;;9.70;98.40;;;;;;5055362;28;20987;-40
2022/04/08 12:15:46;;;;;;;3.60;3.30;;;9.70;98.50;;;;;;5062293;28;20836;-38
2022/04/08 12:18:12;;;;;;;3.30;3.00;;;9.70;97.90;;;;;;5050246;28;20416;-39
2022/04/08 12:20:41;;;;;;;4.30;3.23;;;9.80;98.80;;;;;;5059880;28;20420;-40
2022/04/08 12:23:10;;;;;;;4.40;2.97;;;9.80;98.40;;;;;;5051266;28;20197;-39
2022/04/08 12:25:37;;;;;;;3.87;3.03;;;9.80;98.50;;;;;;5049958;28;20440;-38
2022/04/08 12:28:10;;;;;;;4.27;3.13;;;9.90;99.30;;;;;;5058524;28;20948;-35
2022/04/08 12:30:36;;;;;;;3.37;2.23;;;9.80;97.00;;;;;;5056877;28;20454;-39
2022/04/08 12:33:02;;;;;;;2.67;2.47;;;9.70;97.40;;;;;;5050244;28;20760;-37
2022/04/08 12:35:27;;;;;;;3.20;2.63;;;9.80;96.70;;;;;;5056279;28;20803;-37
2022/04/08 12:37:53;;;;;;;3.87;3.00;;;9.70;96.60;;;;;;5050004;28;20225;-38
2022/04/08 12:40:19;;;;;;;3.40;3.10;;;9.80;96.90;;;;;;5048823;28;20273;-37
2022/04/08 12:42:45;;;;;;;3.80;3.03;;;9.70;96.60;;;;;;5060466;28;20185;-39
2022/04/08 12:45:11;;;;;;;3.50;3.20;;;9.70;97.40;;;;;;5072475;28;20186;-39
2022/04/08 12:47:36;;;;;;;3.33;2.83;;;9.90;98.30;;;;;;5049800;28;20186;-35
2022/04/08 12:50:04;;;;;;;2.77;2.57;;;9.80;97.60;;;;;;5049966;28;20428;-40
2022/04/08 12:52:30;;;;;;;3.40;2.90;;;9.80;98.00;;;;;;5049759;28;20197;-41
2022/04/08 12:54:55;;;;;;;4.73;2.90;;;9.70;96.10;;;;;;5049151;28;20434;-38